sensor_id;sensor_type;location;lat;lon;timestamp;P1;durP1;ratioP1;P2;durP2;ratioP2
22675;SDS011;12521;43.310;21.876;2023-04-03T00:01:28;42.0;;;31.0;;
22675;SDS011;12521;43.310;21.876;2023-04-03T00:06:05;38.0;;;28.0;;
22675;SDS011;12521;43.310;21.876;2023-04-03T00:10:42;38.0;;;28.0;;
22675;SDS011;12521;43.310;21.876;2023-04-03T00:15:19;34.0;;;27.0;;
22675;SDS011;12521;43.310;21.876;2023-04-03T00:19:56;34.0;;;27.0;;
22675;SDS011;12521;43.310;21.876;2023-04-03T00:24:33;31.0;;;26.0;;
22675;SDS011;12521;43.310;21.876;2023-04-03T00:29:09;31.0;;;26.0;;
22675;SDS011;12521;43.310;21.876;2023-04-03T00:33:46;28.0;;;24.0;;
22675;SDS011;12521;43.310;21.876;2023-04-03T00:38:23;28.0;;;24.0;;
22675;SDS011;12521;43.310;21.876;2023-04-03T00:43:05;28.0;;;24.0;;
22675;SDS011;12521;43.310;21.876;2023-04-03T00:47:55;25.0;;;22.0;;
22675;SDS011;12521;43.310;21.876;2023-04-03T00:52:40;25.0;;;22.0;;
22675;SDS011;12521;43.310;21.876;2023-04-03T00:57:18;24.0;;;22.0;;
22675;SDS011;12521;43.310;21.876;2023-04-03T01:01:57;24.0;;;22.0;;
22675;SDS011;12521;43.310;21.876;2023-04-03T01:06:37;24.0;;;21.0;;
22675;SDS011;12521;43.310;21.876;2023-04-03T01:11:13;24.0;;;21.0;;
22675;SDS011;12521;43.310;21.876;2023-04-03T01:15:49;24.0;;;21.0;;
22675;SDS011;12521;43.310;21.876;2023-04-03T01:22:09;24.0;;;21.0;;
22675;SDS011;12521;43.310;21.876;2023-04-03T01:36:32;33.0;;;27.0;;
22675;SDS011;12521;43.310;21.876;2023-04-03T01:41:10;33.0;;;27.0;;
22675;SDS011;12521;43.310;21.876;2023-04-03T01:45:47;33.0;;;27.0;;
22675;SDS011;12521;43.310;21.876;2023-04-03T01:50:24;33.0;;;27.0;;
22675;SDS011;12521;43.310;21.876;2023-04-03T01:55:01;34.0;;;28.0;;
22675;SDS011;12521;43.310;21.876;2023-04-03T01:59:38;34.0;;;28.0;;
22675;SDS011;12521;43.310;21.876;2023-04-03T02:04:15;34.0;;;28.0;;
22675;SDS011;12521;43.310;21.876;2023-04-03T02:08:52;34.0;;;28.0;;
22675;SDS011;12521;43.310;21.876;2023-04-03T02:13:28;30.0;;;27.0;;
22675;SDS011;12521;43.310;21.876;2023-04-03T02:18:07;30.0;;;27.0;;
22675;SDS011;12521;43.310;21.876;2023-04-03T02:22:47;30.0;;;27.0;;
22675;SDS011;12521;43.310;21.876;2023-04-03T02:27:24;27.0;;;26.0;;
22675;SDS011;12521;43.310;21.876;2023-04-03T02:32:01;27.0;;;26.0;;
22675;SDS011;12521;43.310;21.876;2023-04-03T02:36:38;32.0;;;28.0;;
22675;SDS011;12521;43.310;21.876;2023-04-03T02:41:14;32.0;;;28.0;;
22675;SDS011;12521;43.310;21.876;2023-04-03T02:45:51;36.0;;;31.0;;
22675;SDS011;12521;43.310;21.876;2023-04-03T02:50:27;36.0;;;31.0;;
22675;SDS011;12521;43.310;21.876;2023-04-03T02:55:05;30.0;;;28.0;;
22675;SDS011;12521;43.310;21.876;2023-04-03T02:59:43;30.0;;;28.0;;
22675;SDS011;12521;43.310;21.876;2023-04-03T03:04:20;25.0;;;24.0;;
22675;SDS011;12521;43.310;21.876;2023-04-03T03:08:57;25.0;;;24.0;;
22675;SDS011;12521;43.310;21.876;2023-04-03T03:13:35;24.0;;;22.0;;
22675;SDS011;12521;43.310;21.876;2023-04-03T03:18:13;24.0;;;22.0;;
22675;SDS011;12521;43.310;21.876;2023-04-03T03:22:50;24.0;;;22.0;;
22675;SDS011;12521;43.310;21.876;2023-04-03T03:27:27;23.0;;;21.0;;
22675;SDS011;12521;43.310;21.876;2023-04-03T03:32:04;23.0;;;21.0;;
22675;SDS011;12521;43.310;21.876;2023-04-03T03:36:41;22.0;;;19.0;;
22675;SDS011;12521;43.310;21.876;2023-04-03T03:41:18;22.0;;;19.0;;
22675;SDS011;12521;43.310;21.876;2023-04-03T03:45:55;22.0;;;17.0;;
22675;SDS011;12521;43.310;21.876;2023-04-03T03:50:32;22.0;;;17.0;;
22675;SDS011;12521;43.310;21.876;2023-04-03T03:55:09;24.0;;;22.0;;
22675;SDS011;12521;43.310;21.876;2023-04-03T03:59:45;24.0;;;22.0;;
22675;SDS011;12521;43.310;21.876;2023-04-03T04:04:21;27.0;;;26.0;;
22675;SDS011;12521;43.310;21.876;2023-04-03T04:08:58;27.0;;;26.0;;
22675;SDS011;12521;43.310;21.876;2023-04-03T04:13:34;26.0;;;24.0;;
22675;SDS011;12521;43.310;21.876;2023-04-03T04:18:11;26.0;;;24.0;;
22675;SDS011;12521;43.310;21.876;2023-04-03T04:22:48;26.0;;;24.0;;
22675;SDS011;12521;43.310;21.876;2023-04-03T04:27:25;26.0;;;22.0;;
22675;SDS011;12521;43.310;21.876;2023-04-03T04:32:03;26.0;;;22.0;;
22675;SDS011;12521;43.310;21.876;2023-04-03T04:36:41;28.0;;;24.0;;
22675;SDS011;12521;43.310;21.876;2023-04-03T04:41:19;28.0;;;24.0;;
22675;SDS011;12521;43.310;21.876;2023-04-03T04:46:05;31.0;;;26.0;;
22675;SDS011;12521;43.310;21.876;2023-04-03T04:50:46;31.0;;;26.0;;
22675;SDS011;12521;43.310;21.876;2023-04-03T04:55:23;30.0;;;26.0;;
22675;SDS011;12521;43.310;21.876;2023-04-03T05:00:00;30.0;;;26.0;;
22675;SDS011;12521;43.310;21.876;2023-04-03T05:04:37;29.0;;;25.0;;
22675;SDS011;12521;43.310;21.876;2023-04-03T05:09:14;29.0;;;25.0;;
22675;SDS011;12521;43.310;21.876;2023-04-03T05:13:50;38.0;;;34.0;;
22675;SDS011;12521;43.310;21.876;2023-04-03T05:18:27;38.0;;;34.0;;
22675;SDS011;12521;43.310;21.876;2023-04-03T05:23:04;38.0;;;34.0;;
22675;SDS011;12521;43.310;21.876;2023-04-03T05:27:40;47.0;;;44.0;;
22675;SDS011;12521;43.310;21.876;2023-04-03T05:32:16;47.0;;;44.0;;
22675;SDS011;12521;43.310;21.876;2023-04-03T05:36:53;62.0;;;54.0;;
22675;SDS011;12521;43.310;21.876;2023-04-03T05:41:29;62.0;;;54.0;;
22675;SDS011;12521;43.310;21.876;2023-04-03T05:46:12;77.0;;;64.0;;
22675;SDS011;12521;43.310;21.876;2023-04-03T05:50:55;77.0;;;64.0;;
22675;SDS011;12521;43.310;21.876;2023-04-03T05:55:34;54.0;;;46.0;;
22675;SDS011;12521;43.310;21.876;2023-04-03T06:00:15;54.0;;;46.0;;
22675;SDS011;12521;43.310;21.876;2023-04-03T06:04:55;30.0;;;29.0;;
22675;SDS011;12521;43.310;21.876;2023-04-03T06:09:32;30.0;;;29.0;;
22675;SDS011;12521;43.310;21.876;2023-04-03T06:14:10;38.0;;;35.0;;
22675;SDS011;12521;43.310;21.876;2023-04-03T06:18:48;38.0;;;35.0;;
22675;SDS011;12521;43.310;21.876;2023-04-03T06:23:25;38.0;;;35.0;;
22675;SDS011;12521;43.310;21.876;2023-04-03T06:28:02;47.0;;;41.0;;
22675;SDS011;12521;43.310;21.876;2023-04-03T06:32:38;47.0;;;41.0;;
22675;SDS011;12521;43.310;21.876;2023-04-03T06:37:19;42.0;;;30.0;;
22675;SDS011;12521;43.310;21.876;2023-04-03T06:41:56;42.0;;;30.0;;
22675;SDS011;12521;43.310;21.876;2023-04-03T06:46:32;36.0;;;20.0;;
22675;SDS011;12521;43.310;21.876;2023-04-03T06:51:20;36.0;;;20.0;;
22675;SDS011;12521;43.310;21.876;2023-04-03T06:55:58;33.0;;;22.0;;
22675;SDS011;12521;43.310;21.876;2023-04-03T07:00:34;33.0;;;22.0;;
22675;SDS011;12521;43.310;21.876;2023-04-03T07:05:12;30.0;;;23.0;;
22675;SDS011;12521;43.310;21.876;2023-04-03T07:09:49;30.0;;;23.0;;
22675;SDS011;12521;43.310;21.876;2023-04-03T07:14:26;25.0;;;21.0;;
22675;SDS011;12521;43.310;21.876;2023-04-03T07:19:03;25.0;;;21.0;;
22675;SDS011;12521;43.310;21.876;2023-04-03T07:23:40;20.0;;;19.0;;
22675;SDS011;12521;43.310;21.876;2023-04-03T07:28:21;20.0;;;19.0;;
22675;SDS011;12521;43.310;21.876;2023-04-03T07:33:00;20.0;;;19.0;;
22675;SDS011;12521;43.310;21.876;2023-04-03T07:37:37;23.0;;;22.0;;
22675;SDS011;12521;43.310;21.876;2023-04-03T07:42:13;23.0;;;22.0;;
22675;SDS011;12521;43.310;21.876;2023-04-03T07:46:51;26.0;;;24.0;;
22675;SDS011;12521;43.310;21.876;2023-04-03T07:51:28;26.0;;;24.0;;
22675;SDS011;12521;43.310;21.876;2023-04-03T07:56:06;38.0;;;32.0;;
22675;SDS011;12521;43.310;21.876;2023-04-03T08:00:45;38.0;;;32.0;;
22675;SDS011;12521;43.310;21.876;2023-04-03T08:05:24;49.0;;;39.0;;
22675;SDS011;12521;43.310;21.876;2023-04-03T08:10:01;49.0;;;39.0;;
22675;SDS011;12521;43.310;21.876;2023-04-03T08:14:38;42.0;;;33.0;;
22675;SDS011;12521;43.310;21.876;2023-04-03T08:19:16;42.0;;;33.0;;
22675;SDS011;12521;43.310;21.876;2023-04-03T08:23:54;34.0;;;27.0;;
22675;SDS011;12521;43.310;21.876;2023-04-03T08:28:30;34.0;;;27.0;;
22675;SDS011;12521;43.310;21.876;2023-04-03T08:33:09;34.0;;;27.0;;
22675;SDS011;12521;43.310;21.876;2023-04-03T08:37:47;32.0;;;25.0;;
22675;SDS011;12521;43.310;21.876;2023-04-03T08:42:50;32.0;;;25.0;;
22675;SDS011;12521;43.310;21.876;2023-04-03T08:48:31;29.0;;;23.0;;
22675;SDS011;12521;43.310;21.876;2023-04-03T08:53:28;29.0;;;23.0;;
22675;SDS011;12521;43.310;21.876;2023-04-03T08:58:20;28.0;;;22.0;;
22675;SDS011;12521;43.310;21.876;2023-04-03T09:03:01;28.0;;;22.0;;
22675;SDS011;12521;43.310;21.876;2023-04-03T09:07:45;27.0;;;22.0;;
22675;SDS011;12521;43.310;21.876;2023-04-03T09:12:37;27.0;;;22.0;;
22675;SDS011;12521;43.310;21.876;2023-04-03T09:17:40;32.0;;;26.0;;
22675;SDS011;12521;43.310;21.876;2023-04-03T09:22:26;32.0;;;26.0;;
22675;SDS011;12521;43.310;21.876;2023-04-03T09:27:10;38.0;;;29.0;;
22675;SDS011;12521;43.310;21.876;2023-04-03T09:31:55;38.0;;;29.0;;
22675;SDS011;12521;43.310;21.876;2023-04-03T09:36:43;36.0;;;30.0;;
22675;SDS011;12521;43.310;21.876;2023-04-03T09:41:21;36.0;;;30.0;;
22675;SDS011;12521;43.310;21.876;2023-04-03T09:46:29;35.0;;;31.0;;
22675;SDS011;12521;43.310;21.876;2023-04-03T09:51:15;35.0;;;31.0;;
22675;SDS011;12521;43.310;21.876;2023-04-03T09:55:52;34.0;;;28.0;;
22675;SDS011;12521;43.310;21.876;2023-04-03T10:00:36;34.0;;;28.0;;
22675;SDS011;12521;43.310;21.876;2023-04-03T10:05:37;32.0;;;25.0;;
22675;SDS011;12521;43.310;21.876;2023-04-03T10:10:22;32.0;;;25.0;;
22675;SDS011;12521;43.310;21.876;2023-04-03T10:15:01;32.0;;;25.0;;
22675;SDS011;12521;43.310;21.876;2023-04-03T10:19:59;32.0;;;25.0;;
22675;SDS011;12521;43.310;21.876;2023-04-03T10:25:24;31.0;;;25.0;;
22675;SDS011;12521;43.310;21.876;2023-04-03T10:30:42;31.0;;;25.0;;
22675;SDS011;12521;43.310;21.876;2023-04-03T10:35:57;32.0;;;27.0;;
22675;SDS011;12521;43.310;21.876;2023-04-03T10:41:10;32.0;;;27.0;;
22675;SDS011;12521;43.310;21.876;2023-04-03T10:46:08;33.0;;;29.0;;
22675;SDS011;12521;43.310;21.876;2023-04-03T10:51:10;33.0;;;29.0;;
22675;SDS011;12521;43.310;21.876;2023-04-03T10:56:11;40.0;;;32.0;;
22675;SDS011;12521;43.310;21.876;2023-04-03T11:01:10;40.0;;;32.0;;
22675;SDS011;12521;43.310;21.876;2023-04-03T11:06:07;47.0;;;35.0;;
22675;SDS011;12521;43.310;21.876;2023-04-03T11:11:04;47.0;;;35.0;;
22675;SDS011;12521;43.310;21.876;2023-04-03T11:15:58;49.0;;;36.0;;
22675;SDS011;12521;43.310;21.876;2023-04-03T11:20:53;49.0;;;36.0;;
22675;SDS011;12521;43.310;21.876;2023-04-03T11:26:10;51.0;;;36.0;;
22675;SDS011;12521;43.310;21.876;2023-04-03T11:31:26;51.0;;;36.0;;
22675;SDS011;12521;43.310;21.876;2023-04-03T11:37:16;50.0;;;36.0;;
22675;SDS011;12521;43.310;21.876;2023-04-03T11:42:30;50.0;;;36.0;;
22675;SDS011;12521;43.310;21.876;2023-04-03T11:47:49;48.0;;;37.0;;
22675;SDS011;12521;43.310;21.876;2023-04-03T11:53:28;48.0;;;37.0;;
22675;SDS011;12521;43.310;21.876;2023-04-03T11:58:16;38.0;;;31.0;;
22675;SDS011;12521;43.310;21.876;2023-04-03T12:02:53;38.0;;;31.0;;
22675;SDS011;12521;43.310;21.876;2023-04-03T12:07:30;29.0;;;25.0;;
22675;SDS011;12521;43.310;21.876;2023-04-03T12:12:34;29.0;;;25.0;;
22675;SDS011;12521;43.310;21.876;2023-04-03T12:17:26;31.0;;;26.0;;
22675;SDS011;12521;43.310;21.876;2023-04-03T12:22:14;31.0;;;26.0;;
22675;SDS011;12521;43.310;21.876;2023-04-03T12:27:27;33.0;;;27.0;;
22675;SDS011;12521;43.310;21.876;2023-04-03T12:32:43;33.0;;;27.0;;
22675;SDS011;12521;43.310;21.876;2023-04-03T12:39:02;34.0;;;26.0;;
22675;SDS011;12521;43.310;21.876;2023-04-03T12:44:44;34.0;;;25.0;;
22675;SDS011;12521;43.310;21.876;2023-04-03T12:49:49;34.0;;;25.0;;
22675;SDS011;12521;43.310;21.876;2023-04-03T12:54:37;34.0;;;26.0;;
22675;SDS011;12521;43.310;21.876;2023-04-03T12:59:21;34.0;;;26.0;;
22675;SDS011;12521;43.310;21.876;2023-04-03T13:04:02;33.0;;;28.0;;
22675;SDS011;12521;43.310;21.876;2023-04-03T13:08:51;33.0;;;28.0;;
22675;SDS011;12521;43.310;21.876;2023-04-03T13:13:29;33.0;;;28.0;;
22675;SDS011;12521;43.310;21.876;2023-04-03T13:18:21;33.0;;;28.0;;
22675;SDS011;12521;43.310;21.876;2023-04-03T13:23:04;33.0;;;28.0;;
22675;SDS011;12521;43.310;21.876;2023-04-03T13:27:44;33.0;;;28.0;;
22675;SDS011;12521;43.310;21.876;2023-04-03T13:32:27;33.0;;;28.0;;
22675;SDS011;12521;43.310;21.876;2023-04-03T13:37:25;34.0;;;28.0;;
22675;SDS011;12521;43.310;21.876;2023-04-03T13:42:25;34.0;;;28.0;;
22675;SDS011;12521;43.310;21.876;2023-04-03T13:47:21;35.0;;;28.0;;
22675;SDS011;12521;43.310;21.876;2023-04-03T13:52:22;35.0;;;28.0;;
22675;SDS011;12521;43.310;21.876;2023-04-03T13:57:16;42.0;;;34.0;;
22675;SDS011;12521;43.310;21.876;2023-04-03T14:02:16;42.0;;;34.0;;
22675;SDS011;12521;43.310;21.876;2023-04-03T14:07:05;49.0;;;41.0;;
22675;SDS011;12521;43.310;21.876;2023-04-03T14:11:44;49.0;;;41.0;;
22675;SDS011;12521;43.310;21.876;2023-04-03T14:16:32;45.0;;;37.0;;
22675;SDS011;12521;43.310;21.876;2023-04-03T14:21:21;45.0;;;37.0;;
22675;SDS011;12521;43.310;21.876;2023-04-03T14:25:59;41.0;;;33.0;;
22675;SDS011;12521;43.310;21.876;2023-04-03T14:30:36;41.0;;;33.0;;
22675;SDS011;12521;43.310;21.876;2023-04-03T14:35:13;71.0;;;47.0;;
22675;SDS011;12521;43.310;21.876;2023-04-03T14:39:53;71.0;;;47.0;;
22675;SDS011;12521;43.310;21.876;2023-04-03T14:44:30;101.0;;;61.0;;
22675;SDS011;12521;43.310;21.876;2023-04-03T14:49:19;101.0;;;61.0;;
22675;SDS011;12521;43.310;21.876;2023-04-03T14:53:57;101.0;;;61.0;;
22675;SDS011;12521;43.310;21.876;2023-04-03T14:58:33;69.0;;;46.0;;
22675;SDS011;12521;43.310;21.876;2023-04-03T15:03:15;69.0;;;46.0;;
22675;SDS011;12521;43.310;21.876;2023-04-03T15:07:58;37.0;;;31.0;;
22675;SDS011;12521;43.310;21.876;2023-04-03T15:12:36;37.0;;;31.0;;
22675;SDS011;12521;43.310;21.876;2023-04-03T15:17:21;38.0;;;34.0;;
22675;SDS011;12521;43.310;21.876;2023-04-03T15:21:59;38.0;;;34.0;;
22675;SDS011;12521;43.310;21.876;2023-04-03T15:26:37;40.0;;;37.0;;
22675;SDS011;12521;43.310;21.876;2023-04-03T15:31:15;40.0;;;37.0;;
22675;SDS011;12521;43.310;21.876;2023-04-03T15:35:51;40.0;;;34.0;;
22675;SDS011;12521;43.310;21.876;2023-04-03T15:40:28;40.0;;;34.0;;
22675;SDS011;12521;43.310;21.876;2023-04-03T15:45:08;39.0;;;32.0;;
22675;SDS011;12521;43.310;21.876;2023-04-03T15:49:46;39.0;;;32.0;;
22675;SDS011;12521;43.310;21.876;2023-04-03T15:54:23;36.0;;;32.0;;
22675;SDS011;12521;43.310;21.876;2023-04-03T15:58:59;36.0;;;32.0;;
22675;SDS011;12521;43.310;21.876;2023-04-03T16:03:36;36.0;;;32.0;;
22675;SDS011;12521;43.310;21.876;2023-04-03T16:08:12;33.0;;;31.0;;
22675;SDS011;12521;43.310;21.876;2023-04-03T16:12:50;33.0;;;31.0;;
22675;SDS011;12521;43.310;21.876;2023-04-03T16:17:27;35.0;;;32.0;;
22675;SDS011;12521;43.310;21.876;2023-04-03T16:22:04;35.0;;;32.0;;
22675;SDS011;12521;43.310;21.876;2023-04-03T16:26:41;37.0;;;33.0;;
22675;SDS011;12521;43.310;21.876;2023-04-03T16:31:19;37.0;;;33.0;;
22675;SDS011;12521;43.310;21.876;2023-04-03T16:36:04;36.0;;;32.0;;
22675;SDS011;12521;43.310;21.876;2023-04-03T16:40:43;36.0;;;32.0;;
22675;SDS011;12521;43.310;21.876;2023-04-03T16:45:20;36.0;;;32.0;;
22675;SDS011;12521;43.310;21.876;2023-04-03T16:49:57;36.0;;;32.0;;
22675;SDS011;12521;43.310;21.876;2023-04-03T16:54:34;38.0;;;33.0;;
22675;SDS011;12521;43.310;21.876;2023-04-03T16:59:12;38.0;;;33.0;;
22675;SDS011;12521;43.310;21.876;2023-04-03T17:03:48;38.0;;;33.0;;
22675;SDS011;12521;43.310;21.876;2023-04-03T17:08:25;41.0;;;34.0;;
22675;SDS011;12521;43.310;21.876;2023-04-03T17:13:01;41.0;;;34.0;;
22675;SDS011;12521;43.310;21.876;2023-04-03T17:17:37;40.0;;;34.0;;
22675;SDS011;12521;43.310;21.876;2023-04-03T17:22:14;40.0;;;34.0;;
22675;SDS011;12521;43.310;21.876;2023-04-03T17:26:50;40.0;;;34.0;;
22675;SDS011;12521;43.310;21.876;2023-04-03T17:31:26;40.0;;;34.0;;
22675;SDS011;12521;43.310;21.876;2023-04-03T17:36:05;37.0;;;32.0;;
22675;SDS011;12521;43.310;21.876;2023-04-03T17:40:43;37.0;;;32.0;;
22675;SDS011;12521;43.310;21.876;2023-04-03T17:45:20;34.0;;;30.0;;
22675;SDS011;12521;43.310;21.876;2023-04-03T17:49:57;34.0;;;30.0;;
22675;SDS011;12521;43.310;21.876;2023-04-03T17:54:34;32.0;;;28.0;;
22675;SDS011;12521;43.310;21.876;2023-04-03T17:59:10;32.0;;;28.0;;
22675;SDS011;12521;43.310;21.876;2023-04-03T18:03:53;32.0;;;28.0;;
22675;SDS011;12521;43.310;21.876;2023-04-03T18:08:43;30.0;;;27.0;;
22675;SDS011;12521;43.310;21.876;2023-04-03T18:13:31;30.0;;;27.0;;
22675;SDS011;12521;43.310;21.876;2023-04-03T18:18:09;32.0;;;30.0;;
22675;SDS011;12521;43.310;21.876;2023-04-03T18:22:47;32.0;;;30.0;;
22675;SDS011;12521;43.310;21.876;2023-04-03T18:27:27;33.0;;;32.0;;
22675;SDS011;12521;43.310;21.876;2023-04-03T18:32:11;33.0;;;32.0;;
22675;SDS011;12521;43.310;21.876;2023-04-03T18:36:55;31.0;;;28.0;;
22675;SDS011;12521;43.310;21.876;2023-04-03T18:41:36;31.0;;;28.0;;
22675;SDS011;12521;43.310;21.876;2023-04-03T18:46:14;29.0;;;25.0;;
22675;SDS011;12521;43.310;21.876;2023-04-03T18:50:51;29.0;;;25.0;;
22675;SDS011;12521;43.310;21.876;2023-04-03T18:55:29;30.0;;;28.0;;
22675;SDS011;12521;43.310;21.876;2023-04-03T19:00:08;30.0;;;28.0;;
22675;SDS011;12521;43.310;21.876;2023-04-03T19:04:47;32.0;;;30.0;;
22675;SDS011;12521;43.310;21.876;2023-04-03T19:09:26;32.0;;;30.0;;
22675;SDS011;12521;43.310;21.876;2023-04-03T19:14:05;32.0;;;30.0;;
22675;SDS011;12521;43.310;21.876;2023-04-03T19:18:42;29.0;;;27.0;;
22675;SDS011;12521;43.310;21.876;2023-04-03T19:23:18;29.0;;;27.0;;
22675;SDS011;12521;43.310;21.876;2023-04-03T19:27:55;26.0;;;24.0;;
22675;SDS011;12521;43.310;21.876;2023-04-03T19:32:31;26.0;;;24.0;;
22675;SDS011;12521;43.310;21.876;2023-04-03T19:37:08;24.0;;;22.0;;
22675;SDS011;12521;43.310;21.876;2023-04-03T19:41:45;24.0;;;22.0;;
22675;SDS011;12521;43.310;21.876;2023-04-03T19:46:24;22.0;;;21.0;;
22675;SDS011;12521;43.310;21.876;2023-04-03T19:51:04;22.0;;;21.0;;
22675;SDS011;12521;43.310;21.876;2023-04-03T19:55:40;26.0;;;24.0;;
22675;SDS011;12521;43.310;21.876;2023-04-03T20:00:19;26.0;;;24.0;;
22675;SDS011;12521;43.310;21.876;2023-04-03T20:04:55;30.0;;;27.0;;
22675;SDS011;12521;43.310;21.876;2023-04-03T20:09:31;30.0;;;27.0;;
22675;SDS011;12521;43.310;21.876;2023-04-03T20:14:08;30.0;;;27.0;;
22675;SDS011;12521;43.310;21.876;2023-04-03T20:18:44;25.0;;;23.0;;
22675;SDS011;12521;43.310;21.876;2023-04-03T20:23:21;25.0;;;23.0;;
22675;SDS011;12521;43.310;21.876;2023-04-03T20:27:59;20.0;;;19.0;;
22675;SDS011;12521;43.310;21.876;2023-04-03T20:32:35;20.0;;;19.0;;
22675;SDS011;12521;43.310;21.876;2023-04-03T20:37:13;18.0;;;16.0;;
22675;SDS011;12521;43.310;21.876;2023-04-03T20:41:50;18.0;;;16.0;;
22675;SDS011;12521;43.310;21.876;2023-04-03T20:46:26;15.0;;;14.0;;
22675;SDS011;12521;43.310;21.876;2023-04-03T20:51:14;15.0;;;14.0;;
22675;SDS011;12521;43.310;21.876;2023-04-03T20:55:58;14.0;;;13.0;;
22675;SDS011;12521;43.310;21.876;2023-04-03T21:00:36;14.0;;;13.0;;
22675;SDS011;12521;43.310;21.876;2023-04-03T21:05:17;13.0;;;12.0;;
22675;SDS011;12521;43.310;21.876;2023-04-03T21:21:03;14.0;;;12.0;;
22675;SDS011;12521;43.310;21.876;2023-04-03T21:25:41;14.0;;;12.0;;
22675;SDS011;12521;43.310;21.876;2023-04-03T21:30:18;14.0;;;12.0;;
22675;SDS011;12521;43.310;21.876;2023-04-03T21:34:54;12.0;;;11.0;;
22675;SDS011;12521;43.310;21.876;2023-04-03T21:39:32;12.0;;;11.0;;
22675;SDS011;12521;43.310;21.876;2023-04-03T21:44:10;12.0;;;11.0;;
22675;SDS011;12521;43.310;21.876;2023-04-03T21:48:47;11.0;;;10.0;;
22675;SDS011;12521;43.310;21.876;2023-04-03T21:53:24;11.0;;;10.0;;
22675;SDS011;12521;43.310;21.876;2023-04-03T21:58:00;11.0;;;10.0;;
22675;SDS011;12521;43.310;21.876;2023-04-03T22:02:39;11.0;;;10.0;;
22675;SDS011;12521;43.310;21.876;2023-04-03T22:07:16;11.0;;;11.0;;
22675;SDS011;12521;43.310;21.876;2023-04-03T22:11:52;11.0;;;11.0;;
22675;SDS011;12521;43.310;21.876;2023-04-03T22:16:29;10.0;;;10.0;;
22675;SDS011;12521;43.310;21.876;2023-04-03T22:21:06;10.0;;;10.0;;
22675;SDS011;12521;43.310;21.876;2023-04-03T22:25:42;10.0;;;10.0;;
22675;SDS011;12521;43.310;21.876;2023-04-03T22:30:31;10.0;;;10.0;;
22675;SDS011;12521;43.310;21.876;2023-04-03T22:35:08;8.0;;;8.0;;
22675;SDS011;12521;43.310;21.876;2023-04-03T22:39:44;8.0;;;8.0;;
22675;SDS011;12521;43.310;21.876;2023-04-03T22:44:21;8.0;;;8.0;;
22675;SDS011;12521;43.310;21.876;2023-04-03T22:48:57;7.0;;;7.0;;
22675;SDS011;12521;43.310;21.876;2023-04-03T22:53:34;7.0;;;7.0;;
22675;SDS011;12521;43.310;21.876;2023-04-03T22:58:12;6.0;;;6.0;;
22675;SDS011;12521;43.310;21.876;2023-04-03T23:02:48;6.0;;;6.0;;
22675;SDS011;12521;43.310;21.876;2023-04-03T23:07:25;6.0;;;6.0;;
22675;SDS011;12521;43.310;21.876;2023-04-03T23:12:01;6.0;;;6.0;;
22675;SDS011;12521;43.310;21.876;2023-04-03T23:16:39;6.0;;;6.0;;
22675;SDS011;12521;43.310;21.876;2023-04-03T23:21:15;6.0;;;6.0;;
22675;SDS011;12521;43.310;21.876;2023-04-03T23:25:54;7.0;;;7.0;;
22675;SDS011;12521;43.310;21.876;2023-04-03T23:30:37;7.0;;;7.0;;
22675;SDS011;12521;43.310;21.876;2023-04-03T23:35:14;6.0;;;6.0;;
22675;SDS011;12521;43.310;21.876;2023-04-03T23:39:51;6.0;;;6.0;;
22675;SDS011;12521;43.310;21.876;2023-04-03T23:44:28;6.0;;;6.0;;
22675;SDS011;12521;43.310;21.876;2023-04-03T23:49:05;4.0;;;4.0;;
22675;SDS011;12521;43.310;21.876;2023-04-03T23:53:42;4.0;;;4.0;;
22675;SDS011;12521;43.310;21.876;2023-04-03T23:58:19;4.0;;;4.0;;
